Jupiter Sun — D5GM7 — position and weather

sailwx.info

Track history (hours):
 
Tides and Currents Weather Stations Pressure Air Temp Water Temp Dewpoint Dewpoint Depression Visibility Wind Speed Wind Dir Waves Ship Positions

Jupiter Sun

Last reported at 2017-Oct-16 03:41 UTC. Time now 2017-Oct-18 18:43 UTC.
Position N 48°21' W 126°13'.

Length 244 m; draft 12.3 m.

Type: Ship (hazmat cat A). MMSI: 636016504.

Date/timePositionNaut miles runAvg speedWind from/ knotsBaromVisibWave heightAir tempDewpointWater temp
2017-Oct-16 03:41N 48°21' W 126°13'411.8
2017-Oct-16 03:23N 48°22' W 126°08'512.2
2017-Oct-16 03:00N 48°23' W 126°01'612.3
2017-Oct-16 02:30N 48°25' W 125°52'612.3
2017-Oct-16 02:00N 48°26' W 125°43'612.2
2017-Oct-16 01:30N 48°27' W 125°34'611.9
2017-Oct-16 01:00N 48°29' W 125°26'612.0
2017-Oct-16 00:30N 48°30' W 125°17'612.2
2017-Oct-16 00:00N 48°31' W 125°08'612.7
2017-Oct-15 23:30N 48°32' W 124°58'713.2
2017-Oct-15 23:00N 48°31' W 124°48'713.1
2017-Oct-15 22:30N 48°29' W 124°39'612.9
2017-Oct-15 22:00N 48°27' W 124°30'612.6
2017-Oct-15 21:30N 48°25' W 124°21'612.3
2017-Oct-15 21:00N 48°22' W 124°12'612.3
2017-Oct-15 20:30N 48°19' W 124°04'612.2
2017-Oct-15 20:00N 48°18' W 123°55'612.0
2017-Oct-15 19:30N 48°16' W 123°47'510.4
2017-Oct-15 19:00N 48°16' W 123°39'5 8.5
2017-Oct-15 18:28N 48°15' W 123°32'510.6
2017-Oct-15 18:00N 48°13' W 123°26'510.2
2017-Oct-15 17:30N 48°08' W 123°21'611.1
2017-Oct-15 16:59N 48°12' W 123°15'612.2
2017-Oct-15 16:30N 48°16' W 123°08'612.0
2017-Oct-15 16:00N 48°19' W 123°01'612.4
2017-Oct-15 15:30N 48°23' W 122°53'611.7
2017-Oct-15 15:00N 48°27' W 122°46'9 8.7
2017-Oct-15 14:00N 48°31' W 122°35'1 0.9
2017-Oct-15 13:22N 48°31' W 122°35'  
2017-Oct-12 20:04N 48°31' W 122°35'0 0.1
2017-Oct-12 19:56N 48°31' W 122°35'1 2.8
2017-Oct-12 19:31N 48°31' W 122°36'3 6.4
2017-Oct-12 19:01N 48°31' W 122°41'5 9.8
2017-Oct-12 18:31N 48°27' W 122°45'611.8
2017-Oct-12 18:00N 48°23' W 122°51'713.5
2017-Oct-12 17:30N 48°19' W 122°59'713.3
2017-Oct-12 17:00N 48°16' W 123°08'613.0
2017-Oct-12 16:31N 48°12' W 123°16'4 7.0
2017-Oct-12 16:00N 48°10' W 123°20'2 4.6
2017-Oct-12 15:30N 48°08' W 123°23'1 2.3
2017-Oct-12 14:52N 48°08' W 123°25'0 0.1
2017-Oct-12 14:28N 48°08' W 123°25'0 0.1
2017-Oct-12 13:58N 48°08' W 123°25'0 0.1
2017-Oct-12 13:28N 48°08' W 123°25'0 0.1
2017-Oct-12 12:40N 48°08' W 123°25'0 0.1
2017-Oct-12 12:19N 48°08' W 123°25'0 0.0
2017-Oct-12 11:55N 48°08' W 123°25'0 0.1
2017-Oct-12 11:28N 48°08' W 123°25'0 0.2
2017-Oct-12 10:55N 48°08' W 123°25'0 0.1
2017-Oct-12 10:22N 48°08' W 123°25'0 0.1
2017-Oct-12 09:58N 48°08' W 123°25'0 0.0
2017-Oct-12 09:28N 48°08' W 123°25'0 0.1
2017-Oct-12 08:58N 48°08' W 123°25'0 0.0
2017-Oct-12 08:28N 48°08' W 123°25'0 0.0
2017-Oct-12 07:55N 48°08' W 123°25'0 0.1
2017-Oct-12 07:28N 48°08' W 123°25'0 0.1
2017-Oct-12 06:49N 48°08' W 123°25'0 0.1
2017-Oct-12 06:22N 48°08' W 123°25'0 0.1
2017-Oct-12 05:58N 48°08' W 123°25'0 0.1
2017-Oct-12 05:25N 48°08' W 123°25'0 0.1
2017-Oct-12 04:55N 48°08' W 123°25'0 0.0
2017-Oct-12 04:25N 48°08' W 123°25'0 0.0
2017-Oct-12 03:58N 48°08' W 123°25'0 0.1
2017-Oct-12 03:25N 48°08' W 123°25'0 0.2
2017-Oct-12 02:58N 48°08' W 123°25'0 0.2
2017-Oct-12 02:25N 48°08' W 123°25'0 0.1
2017-Oct-12 01:58N 48°08' W 123°25'0 0.1
2017-Oct-12 01:04N 48°08' W 123°25'0 0.5
2017-Oct-12 00:58N 48°08' W 123°25'0 0.1
2017-Oct-12 00:22N 48°08' W 123°25'0 0.0
2017-Oct-11 23:55N 48°08' W 123°25'0 0.1
2017-Oct-11 23:28N 48°08' W 123°25'0 0.0
2017-Oct-11 22:58N 48°08' W 123°25'0 0.1
2017-Oct-11 22:25N 48°08' W 123°25'0 0.1
2017-Oct-11 21:58N 48°08' W 123°25'0 0.1
2017-Oct-11 21:28N 48°08' W 123°25'0 0.0
2017-Oct-11 20:55N 48°08' W 123°25'0 0.0
2017-Oct-11 20:25N 48°08' W 123°25'0 0.0
2017-Oct-11 19:58N 48°08' W 123°25'0 0.0
2017-Oct-11 19:28N 48°08' W 123°25'0 0.1
2017-Oct-11 18:49N 48°08' W 123°25'0 0.0
2017-Oct-11 18:28N 48°08' W 123°25'0 0.0
2017-Oct-11 17:49N 48°08' W 123°25'0 0.1
2017-Oct-11 17:25N 48°08' W 123°25'0 0.2
2017-Oct-11 16:49N 48°08' W 123°25'0 0.0
2017-Oct-10 23:58N 48°08' W 123°25'0 0.0
2017-Oct-10 23:28N 48°08' W 123°25'0 0.0
2017-Oct-10 22:58N 48°08' W 123°25'0 0.0
2017-Oct-10 22:28N 48°08' W 123°25'0 0.0
2017-Oct-10 21:58N 48°08' W 123°25'0 0.1
2017-Oct-10 21:16N 48°08' W 123°25'0 0.1
2017-Oct-10 20:31N 48°08' W 123°25'0 0.1
2017-Oct-10 20:28N 48°08' W 123°25'0 0.0
2017-Oct-10 19:55N 48°08' W 123°25'0 0.0
2017-Oct-10 19:28N 48°08' W 123°25'0 0.0
2017-Oct-10 18:58N 48°08' W 123°25'0 0.1
2017-Oct-10 18:28N 48°08' W 123°25'0 0.1
2017-Oct-10 17:55N 48°08' W 123°25'0 0.1
2017-Oct-10 17:13N 48°08' W 123°25'0 0.2
2017-Oct-10 16:55N 48°08' W 123°25'0 0.0
2017-Oct-10 16:28N 48°08' W 123°25'0 0.0
2017-Oct-10 15:55N 48°08' W 123°25'0 0.0
2017-Oct-10 15:28N 48°08' W 123°25'0 0.2
2017-Oct-10 14:58N 48°08' W 123°25'0 0.0
2017-Oct-10 13:58N 48°08' W 123°25'0 0.0
2017-Oct-10 13:28N 48°08' W 123°25'0 0.0
2017-Oct-10 12:58N 48°08' W 123°25'0 0.1
2017-Oct-10 12:28N 48°08' W 123°25'0 0.0
2017-Oct-10 11:58N 48°08' W 123°25'0 0.0
2017-Oct-10 11:28N 48°08' W 123°25'0 0.0
2017-Oct-10 10:52N 48°08' W 123°25'0 0.2
2017-Oct-10 10:28N 48°08' W 123°25'0 0.1
2017-Oct-10 09:58N 48°08' W 123°25'0 0.1
2017-Oct-10 09:28N 48°08' W 123°25'0 0.0
2017-Oct-10 08:58N 48°08' W 123°25'0 0.1
2017-Oct-10 08:28N 48°08' W 123°25'0 0.1
2017-Oct-10 07:58N 48°08' W 123°25'0 0.0
2017-Oct-10 07:25N 48°08' W 123°25'0 0.0
2017-Oct-10 06:58N 48°08' W 123°25'0 0.0
2017-Oct-10 06:28N 48°08' W 123°25'0 0.1
2017-Oct-10 05:58N 48°08' W 123°25'0 0.0
2017-Oct-10 05:19N 48°08' W 123°25'0 0.0
2017-Oct-10 04:55N 48°08' W 123°25'0 0.1
2017-Oct-10 04:28N 48°08' W 123°25'0 0.1
2017-Oct-10 03:55N 48°08' W 123°25'0 0.0
2017-Oct-10 03:22N 48°08' W 123°25'0 0.0
2017-Oct-10 02:58N 48°08' W 123°25'0 0.1
2017-Oct-10 02:16N 48°08' W 123°25'0 0.0
2017-Oct-10 01:58N 48°08' W 123°25'0 0.0
2017-Oct-10 01:28N 48°08' W 123°25'0 0.1
2017-Oct-10 00:55N 48°08' W 123°25'0 0.0
2017-Oct-10 00:28N 48°08' W 123°25'0 0.0
2017-Oct-09 23:58N 48°08' W 123°25'0 0.0
2017-Oct-09 23:28N 48°08' W 123°25'0 0.0
2017-Oct-09 22:58N 48°08' W 123°25'0 0.0
2017-Oct-09 22:25N 48°08' W 123°25'0 0.0
2017-Oct-09 21:58N 48°08' W 123°25'0 0.0
2017-Oct-09 21:28N 48°08' W 123°25'0 0.1
2017-Oct-09 20:58N 48°08' W 123°25'0 0.1
2017-Oct-09 20:22N 48°08' W 123°25'0 0.1
2017-Oct-09 19:58N 48°08' W 123°25'0 0.0
2017-Oct-09 19:28N 48°08' W 123°25'0 0.1
2017-Oct-09 18:58N 48°08' W 123°25'0 0.0
2017-Oct-09 18:28N 48°08' W 123°25'0 0.1
2017-Oct-09 17:55N 48°08' W 123°25'0 0.1
2017-Oct-09 17:28N 48°08' W 123°25'0 0.0
2017-Oct-09 16:28N 48°08' W 123°25'0 0.1
2017-Oct-09 15:55N 48°08' W 123°25'0 0.0
2017-Oct-09 15:28N 48°08' W 123°25'0 0.1
2017-Oct-09 14:55N 48°08' W 123°25'0 0.0
2017-Oct-09 14:28N 48°08' W 123°25'0 0.0
2017-Oct-09 13:37N 48°08' W 123°25'0 0.0
2017-Oct-09 13:28N 48°08' W 123°25'0 0.0
2017-Oct-09 12:58N 48°08' W 123°25'0 0.0
2017-Oct-09 12:28N 48°08' W 123°25'0 0.0
2017-Oct-09 11:52N 48°08' W 123°25'0 0.0
2017-Oct-09 11:28N 48°08' W 123°25'0 0.1
2017-Oct-09 10:58N 48°08' W 123°25'0 0.1
2017-Oct-09 10:13N 48°08' W 123°25'0 0.1
2017-Oct-09 09:52N 48°08' W 123°25'0 0.2
2017-Oct-09 09:28N 48°08' W 123°25'0 0.0
2017-Oct-09 08:55N 48°08' W 123°25'0 0.1
2017-Oct-09 08:25N 48°08' W 123°25'0 0.1
2017-Oct-09 07:58N 48°08' W 123°25'0 0.1
2017-Oct-09 07:16N 48°08' W 123°25'0 0.1
2017-Oct-09 06:58N 48°08' W 123°25'0 0.1
2017-Oct-09 06:28N 48°08' W 123°25'0 0.0
2017-Oct-09 05:58N 48°08' W 123°25'0 0.1
2017-Oct-09 05:19N 48°08' W 123°25'0 0.1
2017-Oct-09 04:55N 48°08' W 123°25'0 0.1
2017-Oct-09 04:25N 48°08' W 123°25'0 0.1
2017-Oct-09 03:52N 48°08' W 123°25'0 0.2
2017-Oct-09 03:19N 48°08' W 123°25'0 0.1
2017-Oct-09 02:58N 48°08' W 123°25'0 0.1
2017-Oct-09 02:25N 48°08' W 123°25'0 0.1
2017-Oct-09 01:55N 48°08' W 123°25'0 0.1
2017-Oct-09 01:22N 48°08' W 123°25'0 0.0
2017-Oct-09 00:52N 48°08' W 123°25'0 0.1
2017-Oct-09 00:28N 48°08' W 123°25'0 0.1
2017-Oct-08 23:55N 48°08' W 123°25'0 0.0
2017-Oct-08 23:13N 48°08' W 123°25'0 0.1
2017-Oct-08 22:55N 48°08' W 123°25'0 0.0
2017-Oct-08 22:16N 48°08' W 123°25'0 0.0
2017-Oct-08 21:52N 48°08' W 123°25'0 0.2
2017-Oct-08 21:28N 48°08' W 123°25'0 0.0
2017-Oct-08 20:58N 48°08' W 123°25'0 0.1
2017-Oct-08 20:28N 48°08' W 123°25'0 0.1
2017-Oct-08 19:58N 48°08' W 123°25'0 0.0
2017-Oct-08 19:19N 48°08' W 123°25'0 0.1
2017-Oct-08 18:58N 48°08' W 123°25'0 0.0
2017-Oct-08 18:13N 48°08' W 123°25'0 0.0
2017-Oct-08 17:46N 48°08' W 123°25'0 0.1
2017-Oct-08 16:34N 48°08' W 123°25'0 0.1
2017-Oct-08 16:25N 48°08' W 123°25'0 0.2
2017-Oct-08 15:58N 48°08' W 123°25'0 0.1
2017-Oct-08 14:22N 48°08' W 123°25'0 0.0
2017-Oct-08 12:58N 48°08' W 123°25'0 0.0
2017-Oct-08 12:22N 48°08' W 123°25'0 0.1
2017-Oct-08 11:52N 48°08' W 123°25'0 0.1
2017-Oct-08 11:25N 48°08' W 123°25'0 0.0
2017-Oct-08 10:58N 48°08' W 123°25'0 0.1
2017-Oct-08 10:22N 48°08' W 123°25'0 0.1
2017-Oct-08 09:49N 48°08' W 123°25'0 0.1
2017-Oct-08 09:25N 48°08' W 123°25'0 0.0
2017-Oct-08 08:58N 48°08' W 123°25'0 0.2
2017-Oct-08 08:25N 48°08' W 123°25'0 0.2
2017-Oct-08 07:46N 48°08' W 123°25'0 0.1
2017-Oct-08 07:28N 48°08' W 123°25'0 0.1
2017-Oct-08 06:58N 48°08' W 123°25'0 0.0
2017-Oct-08 06:25N 48°08' W 123°25'0 0.1
2017-Oct-08 05:58N 48°08' W 123°25'0 0.1
2017-Oct-08 05:22N 48°08' W 123°25'0 0.0
2017-Oct-08 04:58N 48°08' W 123°25'0 0.1
2017-Oct-08 04:28N 48°08' W 123°25'0 0.0
2017-Oct-08 03:58N 48°08' W 123°25'0 0.0
2017-Oct-08 03:28N 48°08' W 123°25'0 0.0
2017-Oct-08 02:55N 48°08' W 123°25'0 0.1
2017-Oct-08 02:07N 48°08' W 123°25'0 0.3
2017-Oct-08 01:58N 48°08' W 123°25'0 0.1
2017-Oct-08 01:28N 48°08' W 123°25'0 0.0
2017-Oct-08 00:58N 48°08' W 123°25'0 0.1
2017-Oct-08 00:28N 48°08' W 123°25'0 0.1
2017-Oct-07 23:55N 48°08' W 123°25'0 0.1
2017-Oct-07 23:28N 48°08' W 123°25'0 0.1
2017-Oct-07 22:58N 48°08' W 123°25'0 0.0
2017-Oct-07 22:16N 48°08' W 123°25'0 0.2
2017-Oct-07 21:52N 48°08' W 123°25'0 0.2
2017-Oct-07 21:25N 48°08' W 123°25'0 0.1
2017-Oct-07 20:52N 48°08' W 123°25'0 0.0
2017-Oct-07 20:28N 48°08' W 123°25'0 0.1
2017-Oct-07 19:43N 48°08' W 123°25'0 0.2
2017-Oct-07 19:28N 48°08' W 123°25'0 0.2
2017-Oct-07 18:52N 48°08' W 123°25'0 0.0
2017-Oct-07 18:22N 48°08' W 123°25'0 0.1
2017-Oct-07 17:55N 48°08' W 123°25'0 0.2
2017-Oct-07 17:28N 48°08' W 123°25'0 0.2
2017-Oct-07 16:52N 48°08' W 123°25'0 0.1
2017-Oct-07 16:28N 48°08' W 123°25'0 0.0
2017-Oct-07 15:55N 48°08' W 123°25'0 0.0
2017-Oct-07 15:25N 48°08' W 123°25'0 0.0
2017-Oct-07 14:49N 48°08' W 123°25'0 0.0
2017-Oct-07 14:25N 48°08' W 123°25'0 0.0
2017-Oct-07 13:55N 48°08' W 123°25'0 0.0
2017-Oct-07 13:25N 48°08' W 123°25'0 0.0
2017-Oct-07 12:58N 48°08' W 123°25'0 0.0
2017-Oct-07 12:25N 48°08' W 123°25'0 0.1
2017-Oct-07 11:58N 48°08' W 123°25'0 0.1
2017-Oct-07 11:28N 48°08' W 123°25'0 0.1
2017-Oct-07 10:58N 48°08' W 123°25'0 0.1
2017-Oct-07 10:22N 48°08' W 123°25'0 0.0
2017-Oct-07 09:55N 48°08' W 123°25'0 0.0
2017-Oct-07 09:28N 48°08' W 123°25'0 0.2
2017-Oct-07 09:00N 48°08' W 123°25'2 3.8
2017-Oct-07 08:30N 48°08' W 123°22'5 9.2
2017-Oct-07 08:00N 48°10' W 123°16'611.3
2017-Oct-07 07:30N 48°12' W 123°08'611.1
2017-Oct-07 07:00N 48°12' W 122°60'611.7
2017-Oct-07 06:30N 48°12' W 122°51'713.4
2017-Oct-07 05:58N 48°09' W 122°41'613.1
2017-Oct-07 05:30N 48°03' W 122°38'713.5
2017-Oct-07 05:00N 47°57' W 122°33'612.0
2017-Oct-07 04:30N 47°52' W 122°28'612.3
2017-Oct-07 04:00N 47°46' W 122°26'612.4
2017-Oct-07 03:30N 47°40' W 122°27'510.1
2017-Oct-07 03:00N 47°36' W 122°22'1 2.4
2017-Oct-07 02:29N 47°35' W 122°21'0 0.0
2017-Oct-07 01:59N 47°35' W 122°21'0 0.0
2017-Oct-07 01:29N 47°35' W 122°21'0 0.0
2017-Oct-07 01:00N 47°35' W 122°21'0 0.0
2017-Oct-07 00:29N 47°35' W 122°21'0 0.0
2017-Oct-06 23:59N 47°35' W 122°21'0 0.0
2017-Oct-06 23:30N 47°35' W 122°21'0 0.0
2017-Oct-06 23:00N 47°35' W 122°21'0 0.0
2017-Oct-06 22:30N 47°35' W 122°21'0 0.0
2017-Oct-06 22:00N 47°35' W 122°21'0 0.1
2017-Oct-06 21:29N 47°35' W 122°21'0 0.0
2017-Oct-06 21:00N 47°35' W 122°21'0 0.1
2017-Oct-06 20:27N 47°35' W 122°21'0 0.0
2017-Oct-06 19:59N 47°35' W 122°21'0 0.0
2017-Oct-06 19:29N 47°35' W 122°21'0 0.0
2017-Oct-06 19:00N 47°35' W 122°21'0 0.0
2017-Oct-06 18:30N 47°35' W 122°21'0 0.1
2017-Oct-06 18:00N 47°35' W 122°21'0 0.1
2017-Oct-06 17:29N 47°35' W 122°21'0 0.1
2017-Oct-06 16:59N 47°35' W 122°21'0 0.1
2017-Oct-06 16:27N 47°35' W 122°21'0 0.1
2017-Oct-06 15:59N 47°35' W 122°21'0 0.1
2017-Oct-06 15:29N 47°35' W 122°21'0 0.1
2017-Oct-06 15:00N 47°35' W 122°21'0 0.0
2017-Oct-06 14:29N 47°35' W 122°21'0 0.1
2017-Oct-06 13:59N 47°35' W 122°21'0 0.0
2017-Oct-06 13:29N 47°35' W 122°21'0 0.0
2017-Oct-06 12:59N 47°35' W 122°21'0 0.0
2017-Oct-06 12:29N 47°35' W 122°21'0 0.0
2017-Oct-06 11:59N 47°35' W 122°21'0 0.0
2017-Oct-06 11:30N 47°35' W 122°21'0 0.0
2017-Oct-06 10:59N 47°35' W 122°21'0 0.0
2017-Oct-06 10:30N 47°35' W 122°21'0 0.0
2017-Oct-06 10:00N 47°35' W 122°21'0 0.0
2017-Oct-06 09:30N 47°35' W 122°21'0 0.0
2017-Oct-06 08:59N 47°35' W 122°21'0 0.0
2017-Oct-06 08:29N 47°35' W 122°21'0 0.0
2017-Oct-06 07:57N 47°35' W 122°21'0 0.0
2017-Oct-06 07:29N 47°35' W 122°21'0 0.0
2017-Oct-06 07:00N 47°35' W 122°21'0 0.0
2017-Oct-06 06:30N 47°35' W 122°21'0 0.1
2017-Oct-06 05:59N 47°35' W 122°21'0 0.1
2017-Oct-06 05:29N 47°35' W 122°21'0 0.1
2017-Oct-06 05:00N 47°35' W 122°21'0 0.0
2017-Oct-06 04:30N 47°35' W 122°21'0 0.0
2017-Oct-06 04:00N 47°35' W 122°21'  
Track history (hours):
 
Tides and Currents Weather Stations Pressure Air Temp Water Temp Dewpoint Dewpoint Depression Visibility Wind Speed Wind Dir Waves Ship Positions

Jupiter Sun

Last reported at 2017-Oct-16 03:41 UTC. Time now 2017-Oct-18 18:43 UTC.
Position N 48°21' W 126°13'.

Length 244 m; draft 12.3 m.

Type: Ship (hazmat cat A). MMSI: 636016504.

Date/timePositionNaut miles runAvg speedWind from/ knotsBaromVisibWave heightAir tempDewpointWater temp
2017-Oct-16 03:41N 48°21' W 126°13'411.8
2017-Oct-16 03:23N 48°22' W 126°08'512.2
2017-Oct-16 03:00N 48°23' W 126°01'612.3
2017-Oct-16 02:30N 48°25' W 125°52'612.3
2017-Oct-16 02:00N 48°26' W 125°43'612.2
2017-Oct-16 01:30N 48°27' W 125°34'611.9
2017-Oct-16 01:00N 48°29' W 125°26'612.0
2017-Oct-16 00:30N 48°30' W 125°17'612.2
2017-Oct-16 00:00N 48°31' W 125°08'612.7
2017-Oct-15 23:30N 48°32' W 124°58'713.2
2017-Oct-15 23:00N 48°31' W 124°48'713.1
2017-Oct-15 22:30N 48°29' W 124°39'612.9
2017-Oct-15 22:00N 48°27' W 124°30'612.6
2017-Oct-15 21:30N 48°25' W 124°21'612.3
2017-Oct-15 21:00N 48°22' W 124°12'612.3
2017-Oct-15 20:30N 48°19' W 124°04'612.2
2017-Oct-15 20:00N 48°18' W 123°55'612.0
2017-Oct-15 19:30N 48°16' W 123°47'510.4
2017-Oct-15 19:00N 48°16' W 123°39'5 8.5
2017-Oct-15 18:28N 48°15' W 123°32'510.6
2017-Oct-15 18:00N 48°13' W 123°26'510.2
2017-Oct-15 17:30N 48°08' W 123°21'611.1
2017-Oct-15 16:59N 48°12' W 123°15'612.2
2017-Oct-15 16:30N 48°16' W 123°08'612.0
2017-Oct-15 16:00N 48°19' W 123°01'612.4
2017-Oct-15 15:30N 48°23' W 122°53'611.7
2017-Oct-15 15:00N 48°27' W 122°46'9 8.7
2017-Oct-15 14:00N 48°31' W 122°35'1 0.9
2017-Oct-15 13:22N 48°31' W 122°35'  
2017-Oct-12 20:04N 48°31' W 122°35'0 0.1
2017-Oct-12 19:56N 48°31' W 122°35'1 2.8
2017-Oct-12 19:31N 48°31' W 122°36'3 6.4
2017-Oct-12 19:01N 48°31' W 122°41'5 9.8
2017-Oct-12 18:31N 48°27' W 122°45'611.8
2017-Oct-12 18:00N 48°23' W 122°51'713.5
2017-Oct-12 17:30N 48°19' W 122°59'713.3
2017-Oct-12 17:00N 48°16' W 123°08'613.0
2017-Oct-12 16:31N 48°12' W 123°16'4 7.0
2017-Oct-12 16:00N 48°10' W 123°20'2 4.6
2017-Oct-12 15:30N 48°08' W 123°23'1 2.3
2017-Oct-12 14:52N 48°08' W 123°25'0 0.1
2017-Oct-12 14:28N 48°08' W 123°25'0 0.1
2017-Oct-12 13:58N 48°08' W 123°25'0 0.1
2017-Oct-12 13:28N 48°08' W 123°25'0 0.1
2017-Oct-12 12:40N 48°08' W 123°25'0 0.1
2017-Oct-12 12:19N 48°08' W 123°25'0 0.0
2017-Oct-12 11:55N 48°08' W 123°25'0 0.1
2017-Oct-12 11:28N 48°08' W 123°25'0 0.2
2017-Oct-12 10:55N 48°08' W 123°25'0 0.1
2017-Oct-12 10:22N 48°08' W 123°25'0 0.1
2017-Oct-12 09:58N 48°08' W 123°25'0 0.0
2017-Oct-12 09:28N 48°08' W 123°25'0 0.1
2017-Oct-12 08:58N 48°08' W 123°25'0 0.0
2017-Oct-12 08:28N 48°08' W 123°25'0 0.0
2017-Oct-12 07:55N 48°08' W 123°25'0 0.1
2017-Oct-12 07:28N 48°08' W 123°25'0 0.1
2017-Oct-12 06:49N 48°08' W 123°25'0 0.1
2017-Oct-12 06:22N 48°08' W 123°25'0 0.1
2017-Oct-12 05:58N 48°08' W 123°25'0 0.1
2017-Oct-12 05:25N 48°08' W 123°25'0 0.1
2017-Oct-12 04:55N 48°08' W 123°25'0 0.0
2017-Oct-12 04:25N 48°08' W 123°25'0 0.0
2017-Oct-12 03:58N 48°08' W 123°25'0 0.1
2017-Oct-12 03:25N 48°08' W 123°25'0 0.2
2017-Oct-12 02:58N 48°08' W 123°25'0 0.2
2017-Oct-12 02:25N 48°08' W 123°25'0 0.1
2017-Oct-12 01:58N 48°08' W 123°25'0 0.1
2017-Oct-12 01:04N 48°08' W 123°25'0 0.5
2017-Oct-12 00:58N 48°08' W 123°25'0 0.1
2017-Oct-12 00:22N 48°08' W 123°25'0 0.0
2017-Oct-11 23:55N 48°08' W 123°25'0 0.1
2017-Oct-11 23:28N 48°08' W 123°25'0 0.0
2017-Oct-11 22:58N 48°08' W 123°25'0 0.1
2017-Oct-11 22:25N 48°08' W 123°25'0 0.1
2017-Oct-11 21:58N 48°08' W 123°25'0 0.1
2017-Oct-11 21:28N 48°08' W 123°25'0 0.0
2017-Oct-11 20:55N 48°08' W 123°25'0 0.0
2017-Oct-11 20:25N 48°08' W 123°25'0 0.0
2017-Oct-11 19:58N 48°08' W 123°25'0 0.0
2017-Oct-11 19:28N 48°08' W 123°25'0 0.1
2017-Oct-11 18:49N 48°08' W 123°25'0 0.0
2017-Oct-11 18:28N 48°08' W 123°25'0 0.0
2017-Oct-11 17:49N 48°08' W 123°25'0 0.1
2017-Oct-11 17:25N 48°08' W 123°25'0 0.2
2017-Oct-11 16:49N 48°08' W 123°25'0 0.0
2017-Oct-10 23:58N 48°08' W 123°25'0 0.0
2017-Oct-10 23:28N 48°08' W 123°25'0 0.0
2017-Oct-10 22:58N 48°08' W 123°25'0 0.0
2017-Oct-10 22:28N 48°08' W 123°25'0 0.0
2017-Oct-10 21:58N 48°08' W 123°25'0 0.1
2017-Oct-10 21:16N 48°08' W 123°25'0 0.1
2017-Oct-10 20:31N 48°08' W 123°25'0 0.1
2017-Oct-10 20:28N 48°08' W 123°25'0 0.0
2017-Oct-10 19:55N 48°08' W 123°25'0 0.0
2017-Oct-10 19:28N 48°08' W 123°25'0 0.0
2017-Oct-10 18:58N 48°08' W 123°25'0 0.1
2017-Oct-10 18:28N 48°08' W 123°25'0 0.1
2017-Oct-10 17:55N 48°08' W 123°25'0 0.1
2017-Oct-10 17:13N 48°08' W 123°25'0 0.2
2017-Oct-10 16:55N 48°08' W 123°25'0 0.0
2017-Oct-10 16:28N 48°08' W 123°25'0 0.0
2017-Oct-10 15:55N 48°08' W 123°25'0 0.0
2017-Oct-10 15:28N 48°08' W 123°25'0 0.2
2017-Oct-10 14:58N 48°08' W 123°25'0 0.0
2017-Oct-10 13:58N 48°08' W 123°25'0 0.0
2017-Oct-10 13:28N 48°08' W 123°25'0 0.0
2017-Oct-10 12:58N 48°08' W 123°25'0 0.1
2017-Oct-10 12:28N 48°08' W 123°25'0 0.0
2017-Oct-10 11:58N 48°08' W 123°25'0 0.0
2017-Oct-10 11:28N 48°08' W 123°25'0 0.0
2017-Oct-10 10:52N 48°08' W 123°25'0 0.2
2017-Oct-10 10:28N 48°08' W 123°25'0 0.1
2017-Oct-10 09:58N 48°08' W 123°25'0 0.1
2017-Oct-10 09:28N 48°08' W 123°25'0 0.0
2017-Oct-10 08:58N 48°08' W 123°25'0 0.1
2017-Oct-10 08:28N 48°08' W 123°25'0 0.1
2017-Oct-10 07:58N 48°08' W 123°25'0 0.0
2017-Oct-10 07:25N 48°08' W 123°25'0 0.0
2017-Oct-10 06:58N 48°08' W 123°25'0 0.0
2017-Oct-10 06:28N 48°08' W 123°25'0 0.1
2017-Oct-10 05:58N 48°08' W 123°25'0 0.0
2017-Oct-10 05:19N 48°08' W 123°25'0 0.0
2017-Oct-10 04:55N 48°08' W 123°25'0 0.1
2017-Oct-10 04:28N 48°08' W 123°25'0 0.1
2017-Oct-10 03:55N 48°08' W 123°25'0 0.0
2017-Oct-10 03:22N 48°08' W 123°25'0 0.0
2017-Oct-10 02:58N 48°08' W 123°25'0 0.1
2017-Oct-10 02:16N 48°08' W 123°25'0 0.0
2017-Oct-10 01:58N 48°08' W 123°25'0 0.0
2017-Oct-10 01:28N 48°08' W 123°25'0 0.1
2017-Oct-10 00:55N 48°08' W 123°25'0 0.0
2017-Oct-10 00:28N 48°08' W 123°25'0 0.0
2017-Oct-09 23:58N 48°08' W 123°25'0 0.0
2017-Oct-09 23:28N 48°08' W 123°25'0 0.0
2017-Oct-09 22:58N 48°08' W 123°25'0 0.0
2017-Oct-09 22:25N 48°08' W 123°25'0 0.0
2017-Oct-09 21:58N 48°08' W 123°25'0 0.0
2017-Oct-09 21:28N 48°08' W 123°25'0 0.1
2017-Oct-09 20:58N 48°08' W 123°25'0 0.1
2017-Oct-09 20:22N 48°08' W 123°25'0 0.1
2017-Oct-09 19:58N 48°08' W 123°25'0 0.0
2017-Oct-09 19:28N 48°08' W 123°25'0 0.1
2017-Oct-09 18:58N 48°08' W 123°25'0 0.0
2017-Oct-09 18:28N 48°08' W 123°25'0 0.1
2017-Oct-09 17:55N 48°08' W 123°25'0 0.1
2017-Oct-09 17:28N 48°08' W 123°25'0 0.0
2017-Oct-09 16:28N 48°08' W 123°25'0 0.1
2017-Oct-09 15:55N 48°08' W 123°25'0 0.0
2017-Oct-09 15:28N 48°08' W 123°25'0 0.1
2017-Oct-09 14:55N 48°08' W 123°25'0 0.0
2017-Oct-09 14:28N 48°08' W 123°25'0 0.0
2017-Oct-09 13:37N 48°08' W 123°25'0 0.0
2017-Oct-09 13:28N 48°08' W 123°25'0 0.0
2017-Oct-09 12:58N 48°08' W 123°25'0 0.0
2017-Oct-09 12:28N 48°08' W 123°25'0 0.0
2017-Oct-09 11:52N 48°08' W 123°25'0 0.0
2017-Oct-09 11:28N 48°08' W 123°25'0 0.1
2017-Oct-09 10:58N 48°08' W 123°25'0 0.1
2017-Oct-09 10:13N 48°08' W 123°25'0 0.1
2017-Oct-09 09:52N 48°08' W 123°25'0 0.2
2017-Oct-09 09:28N 48°08' W 123°25'0 0.0
2017-Oct-09 08:55N 48°08' W 123°25'0 0.1
2017-Oct-09 08:25N 48°08' W 123°25'0 0.1
2017-Oct-09 07:58N 48°08' W 123°25'0 0.1
2017-Oct-09 07:16N 48°08' W 123°25'0 0.1
2017-Oct-09 06:58N 48°08' W 123°25'0 0.1
2017-Oct-09 06:28N 48°08' W 123°25'0 0.0
2017-Oct-09 05:58N 48°08' W 123°25'0 0.1
2017-Oct-09 05:19N 48°08' W 123°25'0 0.1
2017-Oct-09 04:55N 48°08' W 123°25'0 0.1
2017-Oct-09 04:25N 48°08' W 123°25'0 0.1
2017-Oct-09 03:52N 48°08' W 123°25'0 0.2
2017-Oct-09 03:19N 48°08' W 123°25'0 0.1
2017-Oct-09 02:58N 48°08' W 123°25'0 0.1
2017-Oct-09 02:25N 48°08' W 123°25'0 0.1
2017-Oct-09 01:55N 48°08' W 123°25'0 0.1
2017-Oct-09 01:22N 48°08' W 123°25'0 0.0
2017-Oct-09 00:52N 48°08' W 123°25'0 0.1
2017-Oct-09 00:28N 48°08' W 123°25'0 0.1
2017-Oct-08 23:55N 48°08' W 123°25'0 0.0
2017-Oct-08 23:13N 48°08' W 123°25'0 0.1
2017-Oct-08 22:55N 48°08' W 123°25'0 0.0
2017-Oct-08 22:16N 48°08' W 123°25'0 0.0
2017-Oct-08 21:52N 48°08' W 123°25'0 0.2
2017-Oct-08 21:28N 48°08' W 123°25'0 0.0
2017-Oct-08 20:58N 48°08' W 123°25'0 0.1
2017-Oct-08 20:28N 48°08' W 123°25'0 0.1
2017-Oct-08 19:58N 48°08' W 123°25'0 0.0
2017-Oct-08 19:19N 48°08' W 123°25'0 0.1
2017-Oct-08 18:58N 48°08' W 123°25'0 0.0
2017-Oct-08 18:13N 48°08' W 123°25'0 0.0
2017-Oct-08 17:46N 48°08' W 123°25'0 0.1
2017-Oct-08 16:34N 48°08' W 123°25'0 0.1
2017-Oct-08 16:25N 48°08' W 123°25'0 0.2
2017-Oct-08 15:58N 48°08' W 123°25'0 0.1
2017-Oct-08 14:22N 48°08' W 123°25'0 0.0
2017-Oct-08 12:58N 48°08' W 123°25'0 0.0
2017-Oct-08 12:22N 48°08' W 123°25'0 0.1
2017-Oct-08 11:52N 48°08' W 123°25'0 0.1
2017-Oct-08 11:25N 48°08' W 123°25'0 0.0
2017-Oct-08 10:58N 48°08' W 123°25'0 0.1
2017-Oct-08 10:22N 48°08' W 123°25'0 0.1
2017-Oct-08 09:49N 48°08' W 123°25'0 0.1
2017-Oct-08 09:25N 48°08' W 123°25'0 0.0
2017-Oct-08 08:58N 48°08' W 123°25'0 0.2
2017-Oct-08 08:25N 48°08' W 123°25'0 0.2
2017-Oct-08 07:46N 48°08' W 123°25'0 0.1
2017-Oct-08 07:28N 48°08' W 123°25'0 0.1
2017-Oct-08 06:58N 48°08' W 123°25'0 0.0
2017-Oct-08 06:25N 48°08' W 123°25'0 0.1
2017-Oct-08 05:58N 48°08' W 123°25'0 0.1
2017-Oct-08 05:22N 48°08' W 123°25'0 0.0
2017-Oct-08 04:58N 48°08' W 123°25'0 0.1
2017-Oct-08 04:28N 48°08' W 123°25'0 0.0
2017-Oct-08 03:58N 48°08' W 123°25'0 0.0
2017-Oct-08 03:28N 48°08' W 123°25'0 0.0
2017-Oct-08 02:55N 48°08' W 123°25'0 0.1
2017-Oct-08 02:07N 48°08' W 123°25'0 0.3
2017-Oct-08 01:58N 48°08' W 123°25'0 0.1
2017-Oct-08 01:28N 48°08' W 123°25'0 0.0
2017-Oct-08 00:58N 48°08' W 123°25'0 0.1
2017-Oct-08 00:28N 48°08' W 123°25'0 0.1
2017-Oct-07 23:55N 48°08' W 123°25'0 0.1
2017-Oct-07 23:28N 48°08' W 123°25'0 0.1
2017-Oct-07 22:58N 48°08' W 123°25'0 0.0
2017-Oct-07 22:16N 48°08' W 123°25'0 0.2
2017-Oct-07 21:52N 48°08' W 123°25'0 0.2
2017-Oct-07 21:25N 48°08' W 123°25'0 0.1
2017-Oct-07 20:52N 48°08' W 123°25'0 0.0
2017-Oct-07 20:28N 48°08' W 123°25'0 0.1
2017-Oct-07 19:43N 48°08' W 123°25'0 0.2
2017-Oct-07 19:28N 48°08' W 123°25'0 0.2
2017-Oct-07 18:52N 48°08' W 123°25'0 0.0
2017-Oct-07 18:22N 48°08' W 123°25'0 0.1
2017-Oct-07 17:55N 48°08' W 123°25'0 0.2
2017-Oct-07 17:28N 48°08' W 123°25'0 0.2
2017-Oct-07 16:52N 48°08' W 123°25'0 0.1
2017-Oct-07 16:28N 48°08' W 123°25'0 0.0
2017-Oct-07 15:55N 48°08' W 123°25'0 0.0
2017-Oct-07 15:25N 48°08' W 123°25'0 0.0
2017-Oct-07 14:49N 48°08' W 123°25'0 0.0
2017-Oct-07 14:25N 48°08' W 123°25'0 0.0
2017-Oct-07 13:55N 48°08' W 123°25'0 0.0
2017-Oct-07 13:25N 48°08' W 123°25'0 0.0
2017-Oct-07 12:58N 48°08' W 123°25'0 0.0
2017-Oct-07 12:25N 48°08' W 123°25'0 0.1
2017-Oct-07 11:58N 48°08' W 123°25'0 0.1
2017-Oct-07 11:28N 48°08' W 123°25'0 0.1
2017-Oct-07 10:58N 48°08' W 123°25'0 0.1
2017-Oct-07 10:22N 48°08' W 123°25'0 0.0
2017-Oct-07 09:55N 48°08' W 123°25'0 0.0
2017-Oct-07 09:28N 48°08' W 123°25'0 0.2
2017-Oct-07 09:00N 48°08' W 123°25'2 3.8
2017-Oct-07 08:30N 48°08' W 123°22'5 9.2
2017-Oct-07 08:00N 48°10' W 123°16'611.3
2017-Oct-07 07:30N 48°12' W 123°08'611.1
2017-Oct-07 07:00N 48°12' W 122°60'611.7
2017-Oct-07 06:30N 48°12' W 122°51'713.4
2017-Oct-07 05:58N 48°09' W 122°41'613.1
2017-Oct-07 05:30N 48°03' W 122°38'713.5
2017-Oct-07 05:00N 47°57' W 122°33'612.0
2017-Oct-07 04:30N 47°52' W 122°28'612.3
2017-Oct-07 04:00N 47°46' W 122°26'612.4
2017-Oct-07 03:30N 47°40' W 122°27'510.1
2017-Oct-07 03:00N 47°36' W 122°22'1 2.4
2017-Oct-07 02:29N 47°35' W 122°21'0 0.0
2017-Oct-07 01:59N 47°35' W 122°21'0 0.0
2017-Oct-07 01:29N 47°35' W 122°21'0 0.0
2017-Oct-07 01:00N 47°35' W 122°21'0 0.0
2017-Oct-07 00:29N 47°35' W 122°21'0 0.0
2017-Oct-06 23:59N 47°35' W 122°21'0 0.0
2017-Oct-06 23:30N 47°35' W 122°21'0 0.0
2017-Oct-06 23:00N 47°35' W 122°21'0 0.0
2017-Oct-06 22:30N 47°35' W 122°21'0 0.0
2017-Oct-06 22:00N 47°35' W 122°21'0 0.1
2017-Oct-06 21:29N 47°35' W 122°21'0 0.0
2017-Oct-06 21:00N 47°35' W 122°21'0 0.1
2017-Oct-06 20:27N 47°35' W 122°21'0 0.0
2017-Oct-06 19:59N 47°35' W 122°21'0 0.0
2017-Oct-06 19:29N 47°35' W 122°21'0 0.0
2017-Oct-06 19:00N 47°35' W 122°21'0 0.0
2017-Oct-06 18:30N 47°35' W 122°21'0 0.1
2017-Oct-06 18:00N 47°35' W 122°21'0 0.1
2017-Oct-06 17:29N 47°35' W 122°21'0 0.1
2017-Oct-06 16:59N 47°35' W 122°21'0 0.1
2017-Oct-06 16:27N 47°35' W 122°21'0 0.1
2017-Oct-06 15:59N 47°35' W 122°21'0 0.1
2017-Oct-06 15:29N 47°35' W 122°21'0 0.1
2017-Oct-06 15:00N 47°35' W 122°21'0 0.0
2017-Oct-06 14:29N 47°35' W 122°21'0 0.1
2017-Oct-06 13:59N 47°35' W 122°21'0 0.0
2017-Oct-06 13:29N 47°35' W 122°21'0 0.0
2017-Oct-06 12:59N 47°35' W 122°21'0 0.0
2017-Oct-06 12:29N 47°35' W 122°21'0 0.0
2017-Oct-06 11:59N 47°35' W 122°21'0 0.0
2017-Oct-06 11:30N 47°35' W 122°21'0 0.0
2017-Oct-06 10:59N 47°35' W 122°21'0 0.0
2017-Oct-06 10:30N 47°35' W 122°21'0 0.0
2017-Oct-06 10:00N 47°35' W 122°21'0 0.0
2017-Oct-06 09:30N 47°35' W 122°21'0 0.0
2017-Oct-06 08:59N 47°35' W 122°21'0 0.0
2017-Oct-06 08:29N 47°35' W 122°21'0 0.0
2017-Oct-06 07:57N 47°35' W 122°21'0 0.0
2017-Oct-06 07:29N 47°35' W 122°21'0 0.0
2017-Oct-06 07:00N 47°35' W 122°21'0 0.0
2017-Oct-06 06:30N 47°35' W 122°21'0 0.1
2017-Oct-06 05:59N 47°35' W 122°21'0 0.1
2017-Oct-06 05:29N 47°35' W 122°21'0 0.1
2017-Oct-06 05:00N 47°35' W 122°21'0 0.0
2017-Oct-06 04:30N 47°35' W 122°21'0 0.0
2017-Oct-06 04:00N 47°35' W 122°21'  

Dump ship's entire track history